This is the latest recevied weather packets stored in our database for station/object OK1CBR-13. If no packets are shown the sender has not sent any weather packets the latest 10 day(s).
| Time | Temp. | Humidity | Pressure | Rain* | Wind** | Luminosity | Snow |
|---|---|---|---|---|---|---|---|
| 1778062653 | 20.56° C | 55% | 1008.1 hPa | - | - | - | - |
| 1778062053 | 20° C | 53% | 1008.2 hPa | - | - | - | - |
| 1778061453 | 20° C | 56% | 1008.1 hPa | - | - | - | - |
| 1778060854 | 20° C | 56% | 1008.2 hPa | - | - | - | - |
| 1778060253 | 20° C | 57% | 1008.1 hPa | - | - | - | - |
| 1778059654 | 20° C | 55% | 1008.1 hPa | - | - | - | - |
| 1778059053 | 18.89° C | 61% | 1008 hPa | - | - | - | - |
| 1778058454 | 18.89° C | 60% | 1008.1 hPa | - | - | - | - |
| 1778057854 | 18.89° C | 62% | 1008.1 hPa | - | - | - | - |
| 1778057253 | 18.33° C | 62% | 1008.1 hPa | - | - | - | - |
| 1778056654 | 18.33° C | 66% | 1008 hPa | - | - | - | - |
| 1778056054 | 18.33° C | 64% | 1008 hPa | - | - | - | - |
| 1778055453 | 17.78° C | 66% | 1007.9 hPa | - | - | - | - |
| 1778054854 | 18.33° C | 65% | 1008 hPa | - | - | - | - |
| 1778054254 | 18.33° C | 67% | 1007.9 hPa | - | - | - | - |
| 1778053654 | 17.22° C | 71% | 1008 hPa | - | - | - | - |
| 1778053054 | 16.67° C | 72% | 1008.1 hPa | - | - | - | - |
| 1778052454 | 16.67° C | 75% | 1008.1 hPa | - | - | - | - |
| 1778051854 | 16.67° C | 77% | 1008.1 hPa | - | - | - | - |
| 1778051254 | 16.11° C | 79% | 1008.1 hPa | - | - | - | - |
| 1778050654 | 15.56° C | 85% | 1008.2 hPa | - | - | - | - |
| 1778050054 | 15.56° C | 86% | 1008.1 hPa | - | - | - | - |
| 1778049454 | 15° C | 88% | 1008 hPa | - | - | - | - |
| 1778048854 | 15° C | 88% | 1007.9 hPa | - | - | - | - |
| 1778048254 | 15.56° C | 87% | 1007.7 hPa | - | - | - | - |
* Rain since midnight (hover to see other rain measurements)
** Current wind speed in m/s (hover to see current wind gust speed)